Time;durP1;ratioP1;P1;durP2;ratioP2;P2;SDS_P1;SDS_P2;PMS_P1;PMS_P2;Temp;Humidity;BMP_temperature;BMP_pressure;BME280_temperature;BME280_humidity;BME280_pressure;Samples;Min_cycle;Max_cycle;Signal;HPM_P1;HPM_P2
2021/07/28 00:02:06;;;;;;;6.72;4.60;;;18.70;99.90;;;;;;5058300;28;20036;-51
2021/07/28 00:04:33;;;;;;;7.32;3.92;;;18.50;99.90;;;;;;5061658;28;20081;-49
2021/07/28 00:06:58;;;;;;;4.80;4.28;;;18.50;99.90;;;;;;5046423;28;20029;-49
2021/07/28 00:09:24;;;;;;;6.43;4.60;;;18.50;99.90;;;;;;5061854;28;20036;-52
2021/07/28 00:11:49;;;;;;;7.97;4.10;;;18.50;99.90;;;;;;5066791;28;20056;-51
2021/07/28 00:14:15;;;;;;;6.70;4.28;;;18.50;99.90;;;;;;5059392;28;20020;-48
2021/07/28 00:16:41;;;;;;;5.60;4.60;;;18.60;99.90;;;;;;5056040;28;20024;-51
2021/07/28 00:19:15;;;;;;;6.10;4.57;;;18.60;99.90;;;;;;5064843;28;20070;-51
2021/07/28 00:24:30;;;;;;;7.00;4.47;;;18.60;99.90;;;;;;5052061;28;20515;-50
2021/07/28 00:26:55;;;;;;;7.22;4.45;;;18.50;99.90;;;;;;5059507;28;20025;-51
2021/07/28 00:29:21;;;;;;;6.20;4.15;;;18.60;99.90;;;;;;5062585;28;20043;-51
2021/07/28 00:31:46;;;;;;;4.22;3.55;;;18.60;99.90;;;;;;5060397;28;20503;-50
2021/07/28 00:34:12;;;;;;;5.03;3.88;;;18.60;99.90;;;;;;5060330;28;20085;-51
2021/07/28 00:36:37;;;;;;;5.10;3.95;;;18.60;99.90;;;;;;5056964;28;20020;-51
2021/07/28 00:39:03;;;;;;;7.20;4.10;;;18.50;99.90;;;;;;5061627;28;20325;-50
2021/07/28 00:41:28;;;;;;;7.55;3.88;;;18.60;99.90;;;;;;5064414;28;20017;-51
2021/07/28 00:43:54;;;;;;;5.32;4.20;;;18.60;99.90;;;;;;5055128;28;20382;-51
2021/07/28 00:46:19;;;;;;;5.57;4.13;;;18.60;99.90;;;;;;5061855;28;20082;-51
2021/07/28 00:48:45;;;;;;;5.15;3.97;;;18.60;99.90;;;;;;5042343;28;20303;-51
2021/07/28 00:51:11;;;;;;;4.60;4.10;;;18.60;99.90;;;;;;5040611;28;20048;-50
2021/07/28 00:53:36;;;;;;;5.70;3.92;;;18.50;99.90;;;;;;5040588;28;20028;-50
2021/07/28 00:56:02;;;;;;;5.90;3.95;;;18.50;99.90;;;;;;5039756;28;20017;-50
2021/07/28 00:58:30;;;;;;;5.63;3.97;;;18.40;99.90;;;;;;5042375;28;20016;-48
2021/07/28 01:00:56;;;;;;;5.57;4.45;;;18.30;99.90;;;;;;5040264;28;20466;-49
2021/07/28 01:03:22;;;;;;;5.18;4.00;;;18.30;99.90;;;;;;5038637;28;20024;-51
2021/07/28 01:05:47;;;;;;;5.22;4.05;;;18.30;99.90;;;;;;5042073;28;20029;-48
2021/07/28 01:08:13;;;;;;;5.18;4.28;;;18.30;99.90;;;;;;5042168;28;20179;-48
2021/07/28 01:10:39;;;;;;;7.45;4.30;;;18.20;99.90;;;;;;5038430;28;20148;-50
2021/07/28 01:13:06;;;;;;;5.40;3.90;;;18.30;99.90;;;;;;5041739;28;20492;-50
2021/07/28 01:18:02;;;;;;;7.55;3.88;;;18.30;99.90;;;;;;5047144;28;20025;-48
2021/07/28 01:20:40;;;;;;;4.90;3.63;;;18.30;99.90;;;;;;5061425;28;20103;-50
2021/07/28 01:23:11;;;;;;;6.57;4.30;;;18.30;99.90;;;;;;5056156;28;20088;-49
2021/07/28 01:25:38;;;;;;;5.63;4.07;;;18.40;99.90;;;;;;5065257;28;20028;-48
2021/07/28 01:28:04;;;;;;;5.13;3.97;;;18.40;99.90;;;;;;5061711;28;20379;-50
2021/07/28 01:30:30;;;;;;;4.90;3.90;;;18.40;99.90;;;;;;5059126;28;20029;-50
2021/07/28 01:32:57;;;;;;;5.90;4.13;;;18.40;99.90;;;;;;5060273;28;20206;-50
2021/07/28 01:35:24;;;;;;;4.57;4.05;;;18.50;99.90;;;;;;5059451;28;20259;-50
2021/07/28 01:37:49;;;;;;;6.57;3.53;;;18.50;99.90;;;;;;5060800;28;20559;-50
2021/07/28 01:40:15;;;;;;;7.07;4.40;;;18.50;99.90;;;;;;5060028;28;20024;-51
2021/07/28 01:42:45;;;;;;;7.28;4.20;;;18.60;99.90;;;;;;5060505;28;20020;-51
2021/07/28 01:45:12;;;;;;;7.93;4.10;;;18.60;99.90;;;;;;5057563;28;20391;-51
2021/07/28 01:47:38;;;;;;;4.57;3.97;;;18.60;99.90;;;;;;5061138;28;20435;-50
2021/07/28 01:50:07;;;;;;;6.32;4.20;;;18.60;99.90;;;;;;5058843;28;20382;-50
2021/07/28 01:52:33;;;;;;;4.07;3.67;;;18.60;99.90;;;;;;5061501;28;20378;-48
2021/07/28 01:54:59;;;;;;;7.47;4.50;;;18.50;99.90;;;;;;5059585;28;20034;-48
2021/07/28 01:57:24;;;;;;;5.93;4.40;;;18.50;99.90;;;;;;5061852;28;20024;-48
2021/07/28 01:59:51;;;;;;;4.82;3.92;;;18.60;99.90;;;;;;5060433;28;20032;-50
2021/07/28 02:02:17;;;;;;;4.40;4.00;;;18.60;99.90;;;;;;5054345;28;20023;-49
2021/07/28 02:04:42;;;;;;;4.50;3.80;;;18.60;99.90;;;;;;5055003;28;20100;-50
2021/07/28 02:07:07;;;;;;;4.53;3.80;;;18.60;99.90;;;;;;5056489;28;20024;-50
2021/07/28 02:09:33;;;;;;;7.90;4.45;;;18.60;99.90;;;;;;5060752;28;20028;-49
2021/07/28 02:11:58;;;;;;;4.75;3.95;;;18.60;99.90;;;;;;5059107;28;20029;-50
2021/07/28 02:14:24;;;;;;;5.00;3.80;;;18.60;99.90;;;;;;5059849;28;20031;-48
2021/07/28 02:16:49;;;;;;;5.55;3.97;;;18.60;99.90;;;;;;5045546;28;20045;-47
2021/07/28 02:19:15;;;;;;;5.35;3.50;;;18.60;99.90;;;;;;5066473;28;20259;-47
2021/07/28 02:21:40;;;;;;;5.18;3.70;;;18.60;99.90;;;;;;5057960;28;20033;-47
2021/07/28 02:24:06;;;;;;;6.07;4.28;;;18.60;99.90;;;;;;5047262;28;20033;-46
2021/07/28 02:26:31;;;;;;;6.32;4.10;;;18.50;99.90;;;;;;5062561;28;20375;-47
2021/07/28 02:28:57;;;;;;;6.55;4.57;;;18.50;99.90;;;;;;5050371;28;20104;-48
2021/07/28 02:31:22;;;;;;;5.07;4.07;;;18.50;99.90;;;;;;5064602;28;20567;-48
2021/07/28 02:33:48;;;;;;;4.95;4.07;;;18.40;99.90;;;;;;5055744;28;20029;-50
2021/07/28 02:36:13;;;;;;;5.05;3.92;;;18.40;99.90;;;;;;5053711;28;20371;-50
2021/07/28 02:38:38;;;;;;;5.15;3.97;;;18.40;99.90;;;;;;5058016;28;20021;-49
2021/07/28 02:41:04;;;;;;;6.93;4.25;;;18.40;99.90;;;;;;5059647;28;20016;-48
2021/07/28 02:43:29;;;;;;;7.22;4.60;;;18.40;99.90;;;;;;5061399;28;20766;-48
2021/07/28 02:45:55;;;;;;;6.68;4.35;;;18.50;99.90;;;;;;5049592;28;20040;-49
2021/07/28 02:48:20;;;;;;;4.80;4.07;;;18.40;99.90;;;;;;5065106;28;20028;-49
2021/07/28 02:50:46;;;;;;;6.32;4.88;;;18.40;99.90;;;;;;5052623;28;20029;-51
2021/07/28 02:53:12;;;;;;;4.72;4.25;;;18.40;99.90;;;;;;5065447;28;20036;-50
2021/07/28 02:55:37;;;;;;;7.13;4.28;;;18.40;99.90;;;;;;5057137;28;20092;-49
2021/07/28 02:58:03;;;;;;;6.20;4.10;;;18.30;99.90;;;;;;5053814;28;20016;-48
2021/07/28 03:00:28;;;;;;;4.95;4.00;;;18.30;99.90;;;;;;5062211;28;20024;-49
2021/07/28 03:02:54;;;;;;;6.05;4.28;;;18.30;99.90;;;;;;5052167;28;20021;-49
2021/07/28 03:05:19;;;;;;;4.43;3.88;;;18.30;99.90;;;;;;5064442;28;20021;-49
2021/07/28 03:07:45;;;;;;;6.22;4.53;;;18.30;99.90;;;;;;5055845;28;20533;-50
2021/07/28 03:10:11;;;;;;;4.63;3.70;;;18.40;99.90;;;;;;5064082;28;20038;-50
2021/07/28 03:12:36;;;;;;;4.80;4.30;;;18.40;99.90;;;;;;5057408;28;20017;-51
2021/07/28 03:15:02;;;;;;;6.13;4.35;;;18.40;99.90;;;;;;5052890;28;20017;-50
2021/07/28 03:17:28;;;;;;;5.10;4.60;;;18.30;99.90;;;;;;5049867;28;20027;-50
2021/07/28 03:19:53;;;;;;;5.72;4.45;;;18.30;99.90;;;;;;5054812;28;20037;-51
2021/07/28 03:22:19;;;;;;;7.15;4.50;;;18.20;99.90;;;;;;5059722;28;20025;-48
2021/07/28 03:24:44;;;;;;;6.93;4.13;;;18.20;99.90;;;;;;5062018;28;20083;-48
2021/07/28 03:27:10;;;;;;;7.30;4.32;;;18.20;99.90;;;;;;5063617;28;20145;-48
2021/07/28 03:29:35;;;;;;;6.72;4.70;;;18.20;99.90;;;;;;5063414;28;20051;-47
2021/07/28 03:32:01;;;;;;;6.40;4.45;;;18.10;99.90;;;;;;5048384;28;20542;-49
2021/07/28 03:34:26;;;;;;;7.13;4.38;;;18.10;99.90;;;;;;5062010;28;20035;-48
2021/07/28 03:36:52;;;;;;;6.53;4.82;;;18.10;99.90;;;;;;5059959;28;20474;-49
2021/07/28 03:39:17;;;;;;;7.82;5.32;;;18.00;99.90;;;;;;5048004;28;20047;-47
2021/07/28 03:41:43;;;;;;;6.00;4.45;;;18.00;99.90;;;;;;5068694;28;20398;-48
2021/07/28 03:44:08;;;;;;;6.03;4.43;;;18.00;99.90;;;;;;5059890;28;20036;-47
2021/07/28 03:46:35;;;;;;;7.18;5.10;;;18.00;99.90;;;;;;5062993;28;20035;-49
2021/07/28 03:49:00;;;;;;;7.10;5.28;;;18.00;99.90;;;;;;5058362;28;20017;-48
2021/07/28 03:51:26;;;;;;;7.72;4.90;;;17.90;99.90;;;;;;5057626;28;20381;-47
2021/07/28 03:53:51;;;;;;;6.60;5.10;;;17.90;99.90;;;;;;5064357;28;20029;-49
2021/07/28 03:56:22;;;;;;;6.72;5.20;;;17.80;99.90;;;;;;5048243;28;20017;-48
2021/07/28 03:58:48;;;;;;;6.75;5.18;;;17.80;99.90;;;;;;5062618;28;20016;-48
2021/07/28 04:01:13;;;;;;;9.88;5.05;;;17.70;99.90;;;;;;5054080;28;20432;-48
2021/07/28 04:03:39;;;;;;;6.93;5.40;;;17.70;99.90;;;;;;5037835;28;20029;-48
2021/07/28 04:06:04;;;;;;;9.05;5.25;;;17.70;99.90;;;;;;5042883;28;20590;-48
2021/07/28 04:08:30;;;;;;;7.10;4.97;;;17.70;99.90;;;;;;5055340;28;20048;-50
2021/07/28 04:10:55;;;;;;;7.25;5.65;;;17.60;99.90;;;;;;5045482;28;20014;-48
2021/07/28 04:13:21;;;;;;;6.68;4.90;;;17.60;99.90;;;;;;5057408;28;20012;-47
2021/07/28 04:15:46;;;;;;;7.22;5.35;;;17.60;99.90;;;;;;5052764;28;20024;-52
2021/07/28 04:18:12;;;;;;;6.72;5.25;;;17.60;99.90;;;;;;5035460;28;20060;-48
2021/07/28 04:20:37;;;;;;;7.03;4.97;;;17.70;99.90;;;;;;5036056;28;20025;-51
2021/07/28 04:23:03;;;;;;;6.72;4.93;;;17.60;99.90;;;;;;5039624;28;20060;-51
2021/07/28 04:25:28;;;;;;;9.38;5.80;;;17.70;99.90;;;;;;5046801;28;20038;-51
2021/07/28 04:27:54;;;;;;;8.73;5.50;;;17.60;99.90;;;;;;5038398;28;20037;-50
2021/07/28 04:30:21;;;;;;;6.05;4.93;;;17.60;99.90;;;;;;5034837;28;20035;-47
2021/07/28 04:32:46;;;;;;;9.50;5.82;;;17.70;99.90;;;;;;5036569;28;20028;-48
2021/07/28 04:35:12;;;;;;;11.05;5.35;;;17.70;99.90;;;;;;5035600;28;20036;-47
2021/07/28 04:37:37;;;;;;;7.05;4.90;;;17.70;99.90;;;;;;5045047;28;20032;-48
2021/07/28 04:40:03;;;;;;;7.28;5.20;;;17.70;99.90;;;;;;5052893;28;20062;-51
2021/07/28 04:42:29;;;;;;;5.72;5.10;;;17.70;99.90;;;;;;5037670;28;20032;-49
2021/07/28 04:44:55;;;;;;;8.15;5.88;;;17.70;99.90;;;;;;5029153;28;20033;-48
2021/07/28 04:47:20;;;;;;;6.20;5.47;;;17.70;99.90;;;;;;5030011;28;20022;-49
2021/07/28 04:49:46;;;;;;;10.02;4.95;;;17.70;99.90;;;;;;5029934;28;20360;-49
2021/07/28 04:52:12;;;;;;;8.80;5.20;;;17.70;99.90;;;;;;5030082;28;20490;-48
2021/07/28 04:54:38;;;;;;;8.50;5.10;;;17.70;99.90;;;;;;5031680;28;20032;-49
2021/07/28 04:57:04;;;;;;;8.55;5.28;;;17.80;99.90;;;;;;5030079;28;20029;-49
2021/07/28 04:59:29;;;;;;;9.07;5.05;;;17.80;99.90;;;;;;5033100;28;20025;-48
2021/07/28 05:01:55;;;;;;;8.05;5.13;;;17.80;99.90;;;;;;5049364;28;20029;-48
2021/07/28 05:04:20;;;;;;;11.05;5.10;;;17.80;99.90;;;;;;5042995;28;20033;-48
2021/07/28 05:06:46;;;;;;;8.63;5.63;;;17.80;99.90;;;;;;5050432;28;20457;-50
2021/07/28 05:09:12;;;;;;;7.43;5.20;;;17.80;99.90;;;;;;5050490;28;20036;-48
2021/07/28 05:11:38;;;;;;;7.43;5.70;;;17.90;99.90;;;;;;5051008;28;20028;-47
2021/07/28 05:14:04;;;;;;;7.95;5.20;;;18.10;99.90;;;;;;5054406;28;20423;-48
2021/07/28 05:16:29;;;;;;;6.82;5.38;;;18.10;99.90;;;;;;5047142;28;20026;-48
2021/07/28 05:18:55;;;;;;;5.75;4.72;;;18.10;99.90;;;;;;5058533;28;20041;-50
2021/07/28 05:21:20;;;;;;;7.85;5.07;;;18.10;99.90;;;;;;5045726;28;20031;-48
2021/07/28 05:23:46;;;;;;;7.00;5.07;;;18.10;99.90;;;;;;5033737;28;20106;-49
2021/07/28 05:26:12;;;;;;;6.45;5.03;;;18.10;99.90;;;;;;5037529;28;20347;-47
2021/07/28 05:28:38;;;;;;;7.47;4.97;;;18.10;99.90;;;;;;5033902;28;20033;-48
2021/07/28 05:31:03;;;;;;;10.30;5.32;;;18.20;99.90;;;;;;5036060;28;20094;-51
2021/07/28 05:33:28;;;;;;;8.85;4.85;;;18.30;99.90;;;;;;5033131;28;20108;-48
2021/07/28 05:35:54;;;;;;;12.63;5.65;;;18.30;99.90;;;;;;5034310;28;20025;-50
2021/07/28 05:38:20;;;;;;;6.22;4.85;;;18.30;99.90;;;;;;5038524;28;20025;-47
2021/07/28 05:40:45;;;;;;;7.68;5.05;;;18.30;99.90;;;;;;5038186;28;20104;-48
2021/07/28 05:43:11;;;;;;;6.22;4.53;;;18.30;99.90;;;;;;5034711;28;20037;-48
2021/07/28 05:45:36;;;;;;;6.63;5.38;;;18.30;99.90;;;;;;5033183;28;20032;-47
2021/07/28 05:48:02;;;;;;;6.78;4.45;;;18.30;99.90;;;;;;5035227;28;20159;-50
2021/07/28 05:50:27;;;;;;;6.75;4.38;;;18.30;99.90;;;;;;5038004;28;20021;-48
2021/07/28 05:52:53;;;;;;;6.82;5.20;;;18.30;99.90;;;;;;5032837;28;20036;-47
2021/07/28 05:55:18;;;;;;;7.70;5.20;;;18.30;99.90;;;;;;5031716;28;20043;-48
2021/07/28 05:57:45;;;;;;;10.13;5.47;;;18.40;99.90;;;;;;5033866;28;20032;-48
2021/07/28 06:00:11;;;;;;;8.05;5.70;;;18.40;99.90;;;;;;5048776;28;20019;-47
2021/07/28 06:02:37;;;;;;;5.75;5.03;;;18.40;99.90;;;;;;5046738;28;20496;-47
2021/07/28 06:05:02;;;;;;;11.07;5.20;;;18.40;99.90;;;;;;5057919;28;20039;-47
2021/07/28 06:07:28;;;;;;;7.63;4.78;;;18.50;99.90;;;;;;5033889;28;20036;-46
2021/07/28 06:09:53;;;;;;;6.50;4.80;;;18.60;99.90;;;;;;5044251;28;20032;-46
2021/07/28 06:12:19;;;;;;;6.93;5.00;;;18.60;99.90;;;;;;5034167;28;20103;-47
2021/07/28 06:14:45;;;;;;;7.97;5.85;;;18.70;99.90;;;;;;5037760;28;20526;-46
2021/07/28 06:17:11;;;;;;;7.45;5.07;;;18.70;99.90;;;;;;5036566;28;20112;-47
2021/07/28 06:19:37;;;;;;;12.52;5.80;;;18.70;99.90;;;;;;5032839;28;20398;-47
2021/07/28 06:22:03;;;;;;;10.00;5.40;;;18.70;99.90;;;;;;5048947;28;20017;-46
2021/07/28 06:24:29;;;;;;;5.35;4.85;;;18.80;99.90;;;;;;5056147;28;20027;-46
2021/07/28 06:26:54;;;;;;;6.97;5.20;;;18.80;99.90;;;;;;5031218;28;20030;-46
2021/07/28 06:29:21;;;;;;;8.88;5.43;;;18.80;99.90;;;;;;5046287;28;20505;-47
2021/07/28 06:31:47;;;;;;;10.73;5.60;;;18.90;99.90;;;;;;5046001;28;20148;-48
2021/07/28 06:34:12;;;;;;;7.60;5.13;;;19.00;99.90;;;;;;5047062;28;20521;-48
2021/07/28 06:36:38;;;;;;;7.03;5.38;;;19.00;99.90;;;;;;5037956;28;20109;-47
2021/07/28 06:39:03;;;;;;;6.40;4.88;;;19.00;99.90;;;;;;5046520;28;20022;-47
2021/07/28 06:41:29;;;;;;;7.70;5.10;;;19.10;99.90;;;;;;5041365;28;20116;-47
2021/07/28 06:43:54;;;;;;;8.60;4.70;;;19.20;99.90;;;;;;5044234;28;20041;-48
2021/07/28 06:46:20;;;;;;;6.30;5.43;;;19.30;99.90;;;;;;5033784;28;20021;-50
2021/07/28 06:48:45;;;;;;;6.13;4.75;;;19.30;99.90;;;;;;5045857;28;20032;-48
2021/07/28 06:51:11;;;;;;;9.73;5.30;;;19.40;99.90;;;;;;5045475;28;20040;-47
2021/07/28 06:53:36;;;;;;;9.00;4.82;;;19.50;99.90;;;;;;5054325;28;20063;-47
2021/07/28 06:56:02;;;;;;;6.57;4.70;;;19.50;99.90;;;;;;5047957;28;20048;-47
2021/07/28 06:58:27;;;;;;;8.43;4.25;;;19.50;99.90;;;;;;5057937;28;20103;-47
2021/07/28 07:00:56;;;;;;;7.32;5.22;;;19.60;99.90;;;;;;5046504;28;20029;-46
2021/07/28 07:03:22;;;;;;;6.10;5.03;;;19.70;99.90;;;;;;5060125;28;20363;-49
2021/07/28 07:05:48;;;;;;;6.45;4.65;;;19.80;99.90;;;;;;5042365;28;20036;-48
2021/07/28 07:08:14;;;;;;;7.57;5.20;;;19.80;99.90;;;;;;5054878;28;20145;-47
2021/07/28 07:10:40;;;;;;;7.40;5.05;;;19.90;99.90;;;;;;5054898;28;20475;-48
2021/07/28 07:13:05;;;;;;;8.55;5.00;;;19.90;99.90;;;;;;5055821;28;20091;-46
2021/07/28 07:15:31;;;;;;;7.93;5.65;;;19.90;99.90;;;;;;5058020;28;20453;-47
2021/07/28 07:17:56;;;;;;;7.50;4.93;;;19.80;99.90;;;;;;5039573;28;20028;-47
2021/07/28 07:20:24;;;;;;;7.65;4.88;;;20.00;99.90;;;;;;5032979;28;20091;-47
2021/07/28 07:22:49;;;;;;;6.80;4.85;;;20.10;99.90;;;;;;5035549;28;20025;-47
2021/07/28 07:25:15;;;;;;;7.95;5.57;;;20.10;99.90;;;;;;5062548;28;20565;-48
2021/07/28 07:27:42;;;;;;;7.57;4.75;;;20.10;99.90;;;;;;5050363;28;20048;-49
2021/07/28 07:30:08;;;;;;;7.32;4.90;;;20.20;99.90;;;;;;5043060;28;20425;-47
2021/07/28 07:32:34;;;;;;;9.98;5.35;;;20.30;99.90;;;;;;5056414;28;20024;-49
2021/07/28 07:35:00;;;;;;;5.15;4.32;;;20.50;99.90;;;;;;5049910;28;20093;-47
2021/07/28 07:37:26;;;;;;;6.78;4.60;;;20.60;99.90;;;;;;5054553;28;20056;-48
2021/07/28 07:39:51;;;;;;;8.73;4.32;;;20.80;99.90;;;;;;5053057;28;20470;-48
2021/07/28 07:42:17;;;;;;;9.35;4.90;;;20.80;99.90;;;;;;5056557;28;20016;-47
2021/07/28 07:44:45;;;;;;;5.68;4.40;;;20.80;99.90;;;;;;5056434;28;20021;-47
2021/07/28 07:47:11;;;;;;;7.28;4.75;;;20.90;99.90;;;;;;5043638;28;20038;-47
2021/07/28 07:49:37;;;;;;;9.05;4.70;;;21.20;99.90;;;;;;5061216;28;20070;-47
2021/07/28 07:52:03;;;;;;;9.65;4.68;;;21.20;99.90;;;;;;5053730;28;20375;-50
2021/07/28 07:54:28;;;;;;;8.43;4.57;;;21.40;99.90;;;;;;5056932;28;20044;-47
2021/07/28 07:56:54;;;;;;;5.82;4.40;;;21.60;99.90;;;;;;5054131;28;20044;-47
2021/07/28 07:59:20;;;;;;;6.28;4.68;;;21.80;99.90;;;;;;5058590;28;20407;-47
2021/07/28 08:01:45;;;;;;;6.57;4.07;;;21.80;99.90;;;;;;5047357;28;20025;-50
2021/07/28 08:04:11;;;;;;;7.70;4.53;;;21.80;99.90;;;;;;5047711;28;20090;-47
2021/07/28 08:06:36;;;;;;;8.00;4.50;;;21.80;99.90;;;;;;5060927;28;20036;-48
2021/07/28 08:09:02;;;;;;;7.40;5.15;;;22.00;99.90;;;;;;5052108;28;20087;-47
2021/07/28 08:11:27;;;;;;;6.80;4.55;;;22.30;99.90;;;;;;5053462;28;20031;-47
2021/07/28 08:13:53;;;;;;;8.75;4.47;;;22.60;99.60;;;;;;5038325;28;20476;-47
2021/07/28 08:16:20;;;;;;;5.18;4.45;;;22.70;99.30;;;;;;5056808;28;20037;-47
2021/07/28 08:18:47;;;;;;;6.80;4.35;;;23.00;98.20;;;;;;5041952;28;20025;-48
2021/07/28 08:21:13;;;;;;;9.40;4.65;;;23.20;97.60;;;;;;5042169;28;20094;-47
2021/07/28 08:23:41;;;;;;;6.65;4.05;;;23.10;96.90;;;;;;5038445;28;20057;-48
2021/07/28 08:26:07;;;;;;;5.38;4.07;;;23.00;97.40;;;;;;5037554;28;20030;-47
2021/07/28 08:28:33;;;;;;;5.88;4.25;;;23.20;97.10;;;;;;5037338;28;20025;-48
2021/07/28 08:30:58;;;;;;;4.47;3.72;;;23.60;96.20;;;;;;5042982;28;20048;-47
2021/07/28 08:33:25;;;;;;;5.07;3.70;;;23.80;95.90;;;;;;5038096;28;20108;-47
2021/07/28 08:35:54;;;;;;;4.22;3.15;;;24.60;93.80;;;;;;5037995;28;20399;-47
2021/07/28 08:38:21;;;;;;;4.35;3.05;;;25.60;93.30;;;;;;5051659;28;20478;-49
2021/07/28 08:40:55;;;;;;;6.15;3.80;;;26.50;90.70;;;;;;5045902;28;20077;-51
2021/07/28 08:43:26;;;;;;;3.97;3.47;;;26.90;87.40;;;;;;5041850;28;20239;-48
2021/07/28 08:45:53;;;;;;;4.45;3.35;;;27.50;84.10;;;;;;5046640;28;20029;-50
2021/07/28 08:48:22;;;;;;;3.92;3.42;;;27.60;81.20;;;;;;5038080;28;20471;-50
2021/07/28 08:50:49;;;;;;;6.07;3.40;;;27.20;81.10;;;;;;5051783;28;20445;-47
2021/07/28 08:53:15;;;;;;;4.20;3.63;;;26.70;81.00;;;;;;5048199;28;20036;-47
2021/07/28 08:55:40;;;;;;;4.85;3.95;;;26.00;84.30;;;;;;5050094;28;20071;-48
2021/07/28 08:58:13;;;;;;;6.63;4.22;;;26.40;83.20;;;;;;5050239;28;20583;-50
2021/07/28 09:00:46;;;;;;;7.25;3.65;;;26.70;81.10;;;;;;5051923;28;20070;-47
2021/07/28 09:03:12;;;;;;;9.80;3.92;;;26.20;81.80;;;;;;5052003;28;20466;-48
2021/07/28 09:05:46;;;;;;;5.85;3.95;;;25.60;82.50;;;;;;5056432;28;20041;-48
2021/07/28 09:08:29;;;;;;;7.22;4.88;;;25.20;85.00;;;;;;5044015;28;20394;-49
2021/07/28 09:10:58;;;;;;;5.78;4.35;;;24.70;87.10;;;;;;5046727;28;20108;-47
2021/07/28 09:13:39;;;;;;;6.00;4.22;;;24.30;88.10;;;;;;5041645;28;20016;-47
2021/07/28 09:16:09;;;;;;;5.65;4.10;;;24.50;88.90;;;;;;5052684;28;20029;-48
2021/07/28 09:18:41;;;;;;;4.93;3.65;;;24.40;88.00;;;;;;5051461;28;20016;-48
2021/07/28 09:21:24;;;;;;;6.30;4.18;;;24.60;89.40;;;;;;5041560;28;20025;-50
2021/07/28 09:23:55;;;;;;;5.85;3.78;;;25.70;87.30;;;;;;5050018;28;20546;-50
2021/07/28 09:26:28;;;;;;;4.60;3.80;;;27.30;81.80;;;;;;5046082;28;20032;-50
2021/07/28 09:29:11;;;;;;;7.07;4.00;;;28.10;78.30;;;;;;5038250;28;20037;-50
2021/07/28 09:31:49;;;;;;;4.28;3.88;;;28.10;75.60;;;;;;5050058;28;20163;-47
2021/07/28 09:34:24;;;;;;;9.13;3.95;;;27.70;76.70;;;;;;5049369;28;20497;-47
2021/07/28 09:36:52;;;;;;;7.20;4.03;;;26.80;78.90;;;;;;5047491;28;20509;-50
2021/07/28 09:39:35;;;;;;;4.97;3.90;;;26.30;79.90;;;;;;5041117;28;20205;-49
2021/07/28 09:42:12;;;;;;;6.95;3.90;;;26.00;81.50;;;;;;5040349;28;20386;-48
2021/07/28 09:44:40;;;;;;;8.27;4.45;;;26.30;80.60;;;;;;5046737;28;20020;-50
2021/07/28 09:47:11;;;;;;;7.93;4.80;;;26.10;81.80;;;;;;5036949;28;20092;-50
2021/07/28 09:49:40;;;;;;;4.30;3.90;;;26.20;81.00;;;;;;5032626;28;20248;-48
2021/07/28 09:52:35;;;;;;;3.95;3.55;;;25.90;81.50;;;;;;5036193;28;20098;-47
2021/07/28 09:55:21;;;;;;;5.65;3.70;;;25.80;81.10;;;;;;5037627;28;20086;-48
2021/07/28 09:57:55;;;;;;;4.40;3.78;;;25.50;82.10;;;;;;5045961;28;20059;-48
2021/07/28 10:00:21;;;;;;;3.78;3.33;;;25.20;83.30;;;;;;5034962;28;20244;-48
2021/07/28 10:02:48;;;;;;;6.65;4.25;;;25.80;84.90;;;;;;5030105;28;20434;-47
2021/07/28 10:05:17;;;;;;;5.18;3.95;;;26.10;82.00;;;;;;5048079;28;20449;-47
2021/07/28 10:07:44;;;;;;;4.40;3.50;;;26.50;80.60;;;;;;5045128;28;20029;-48
2021/07/28 10:10:11;;;;;;;6.45;3.78;;;28.10;78.10;;;;;;5038933;28;20040;-49
2021/07/28 10:12:39;;;;;;;5.65;3.50;;;29.00;75.30;;;;;;5048712;28;20447;-50
2021/07/28 10:15:07;;;;;;;4.68;3.50;;;30.30;71.40;;;;;;5046339;28;20051;-51
2021/07/28 10:17:34;;;;;;;4.35;3.50;;;30.40;69.50;;;;;;5045792;28;20017;-49
2021/07/28 10:20:00;;;;;;;4.30;3.40;;;30.80;66.90;;;;;;5045097;28;20022;-51
2021/07/28 10:22:27;;;;;;;6.75;4.28;;;31.80;64.60;;;;;;5060178;28;20052;-48
2021/07/28 10:24:54;;;;;;;5.82;4.00;;;29.20;66.00;;;;;;5058647;28;20025;-48
2021/07/28 10:27:21;;;;;;;5.55;4.15;;;27.20;71.40;;;;;;5060318;28;20035;-49
2021/07/28 10:29:48;;;;;;;4.68;3.38;;;27.10;72.70;;;;;;5047926;28;20504;-49
2021/07/28 10:32:34;;;;;;;7.63;3.85;;;28.20;70.90;;;;;;5034081;28;20033;-48
2021/07/28 10:35:22;;;;;;;4.88;4.13;;;29.00;70.70;;;;;;5034106;28;20037;-47
2021/07/28 10:37:47;;;;;;;5.80;4.30;;;27.50;71.60;;;;;;5035308;28;20200;-48
2021/07/28 10:40:29;;;;;;;3.97;3.58;;;26.40;75.00;;;;;;5042433;28;20520;-49
2021/07/28 10:42:54;;;;;;;7.55;3.95;;;26.60;75.50;;;;;;5035868;28;20471;-47
2021/07/28 10:45:20;;;;;;;7.28;3.85;;;27.00;72.80;;;;;;5035942;28;20035;-49
2021/07/28 10:47:51;;;;;;;4.68;3.63;;;26.70;74.00;;;;;;5033377;28;20025;-47
2021/07/28 10:50:22;;;;;;;7.20;4.25;;;28.00;74.00;;;;;;5042078;28;20486;-47
2021/07/28 10:53:02;;;;;;;6.50;3.95;;;27.80;72.10;;;;;;5046871;28;20112;-50
2021/07/28 10:55:36;;;;;;;6.53;3.70;;;28.70;68.30;;;;;;5047917;28;20109;-49
2021/07/28 10:58:11;;;;;;;4.35;3.83;;;29.30;68.20;;;;;;5034473;28;20017;-50
2021/07/28 11:00:39;;;;;;;6.18;4.20;;;30.20;66.40;;;;;;5026946;28;20479;-49
2021/07/28 11:03:08;;;;;;;5.85;4.40;;;30.40;65.40;;;;;;5039786;28;20478;-49
2021/07/28 11:05:39;;;;;;;6.28;4.22;;;30.50;63.60;;;;;;5047910;28;20119;-50
2021/07/28 11:08:07;;;;;;;5.80;3.97;;;32.10;60.80;;;;;;5043822;28;20044;-51
2021/07/28 11:10:44;;;;;;;4.32;3.92;;;33.50;58.60;;;;;;5048931;28;20029;-51
2021/07/28 11:13:18;;;;;;;5.35;3.97;;;34.00;57.40;;;;;;5047830;28;20025;-51
2021/07/28 11:15:56;;;;;;;4.82;3.28;;;34.10;55.70;;;;;;5044886;28;20033;-50
2021/07/28 11:18:35;;;;;;;4.10;3.47;;;34.00;53.90;;;;;;5050462;28;20012;-51
2021/07/28 11:21:14;;;;;;;6.15;3.30;;;34.30;53.00;;;;;;5057117;28;20027;-51
2021/07/28 11:23:46;;;;;;;3.30;2.90;;;33.70;56.00;;;;;;5053154;28;20107;-50
2021/07/28 11:26:14;;;;;;;7.88;3.00;;;34.40;52.80;;;;;;5033526;28;20040;-51
2021/07/28 11:28:40;;;;;;;3.20;2.90;;;35.20;51.00;;;;;;5038954;28;20074;-51
2021/07/28 11:31:06;;;;;;;6.20;3.42;;;35.10;51.40;;;;;;5047787;28;20112;-49
2021/07/28 11:33:32;;;;;;;7.95;3.95;;;33.30;52.90;;;;;;5043814;28;20044;-50
2021/07/28 11:36:00;;;;;;;4.13;3.10;;;33.00;54.20;;;;;;5035233;28;20041;-51
2021/07/28 11:38:28;;;;;;;4.75;3.13;;;33.10;53.30;;;;;;5051619;28;20029;-51
2021/07/28 11:40:55;;;;;;;9.13;3.70;;;32.70;52.80;;;;;;5044804;28;20479;-51
2021/07/28 11:43:31;;;;;;;5.15;3.33;;;32.50;54.20;;;;;;5054067;28;20057;-50
2021/07/28 11:45:59;;;;;;;4.93;3.38;;;32.90;53.50;;;;;;5048612;28;20164;-49
2021/07/28 11:48:34;;;;;;;6.35;3.42;;;33.10;54.70;;;;;;5046269;28;20028;-51
2021/07/28 11:51:04;;;;;;;4.53;3.00;;;32.40;52.00;;;;;;5033914;28;20236;-47
2021/07/28 11:53:32;;;;;;;7.07;3.50;;;31.30;55.20;;;;;;5053212;28;20056;-50
2021/07/28 11:56:09;;;;;;;5.90;3.90;;;30.10;57.00;;;;;;5045743;28;20075;-48
2021/07/28 11:58:44;;;;;;;4.70;3.30;;;29.40;60.40;;;;;;5032731;28;20033;-50
2021/07/28 12:01:24;;;;;;;3.97;3.47;;;29.60;58.60;;;;;;5052353;28;20438;-50
2021/07/28 12:03:51;;;;;;;4.32;3.30;;;28.70;59.50;;;;;;5041968;28;20025;-49
2021/07/28 12:06:34;;;;;;;5.47;3.42;;;28.40;59.90;;;;;;5044632;28;20029;-48
2021/07/28 12:09:07;;;;;;;4.35;3.17;;;28.20;58.80;;;;;;5052617;28;20031;-50
2021/07/28 12:11:56;;;;;;;7.50;3.13;;;27.10;61.90;;;;;;5042536;28;20025;-47
2021/07/28 12:14:41;;;;;;;3.92;3.28;;;26.90;62.00;;;;;;5051486;28;20032;-47
2021/07/28 12:17:13;;;;;;;4.65;3.42;;;26.70;63.00;;;;;;5047157;28;20041;-49
2021/07/28 12:19:40;;;;;;;8.50;3.42;;;26.80;63.50;;;;;;5062163;28;20506;-49
2021/07/28 12:22:11;;;;;;;4.70;3.13;;;27.50;63.20;;;;;;5060620;28;20039;-48
2021/07/28 12:24:41;;;;;;;3.40;3.10;;;28.20;62.50;;;;;;5059968;28;20092;-48
2021/07/28 12:27:36;;;;;;;6.50;3.30;;;28.60;61.30;;;;;;5060817;28;20096;-51
2021/07/28 12:30:07;;;;;;;10.85;3.22;;;29.10;60.50;;;;;;5044522;28;20025;-49
2021/07/28 12:32:41;;;;;;;5.90;3.35;;;27.20;61.40;;;;;;5058249;28;20028;-48
2021/07/28 12:35:32;;;;;;;9.27;3.33;;;27.40;64.90;;;;;;5039668;28;20503;-49
2021/07/28 12:38:11;;;;;;;4.80;3.20;;;27.60;63.50;;;;;;5050296;28;20055;-49
2021/07/28 12:40:40;;;;;;;6.18;3.42;;;28.10;61.20;;;;;;5039606;28;20022;-48
2021/07/28 12:43:07;;;;;;;10.10;3.85;;;28.30;62.70;;;;;;5037095;28;20032;-47
2021/07/28 12:45:33;;;;;;;8.02;3.30;;;27.10;61.90;;;;;;5034518;28;20079;-47
2021/07/28 12:47:59;;;;;;;6.15;3.20;;;26.80;63.90;;;;;;5036607;28;20499;-50
2021/07/28 12:50:24;;;;;;;6.00;3.25;;;27.30;64.50;;;;;;5034027;28;20040;-48
2021/07/28 12:52:50;;;;;;;3.65;2.90;;;27.60;62.20;;;;;;5047578;28;20025;-48
2021/07/28 12:55:16;;;;;;;4.88;3.17;;;28.50;66.60;;;;;;5060519;28;20499;-47